Dario Filipe — CUHY7 — position and weather

sailwx.info

Track history (hours):
 
Tides and Currents Weather Stations Pressure Air Temp Water Temp Dewpoint Dewpoint Depression Visibility Wind Speed Wind Dir Waves Ship Positions

Dario Filipe

Last reported at 2015-May-27 18:29 UTC. Time now 2015-May-27 20:01 UTC.
Position N 39°21' W 009°22'.

Length 24 m.

Type: Fishing. MMSI: 263414640.

Date/timePositionNaut miles runAvg speedWind from/ knotsBaromVisibWave heightAir tempDewpointWater temp
2015-May-27 18:29N 39°21' W 009°22'0 0.0
2015-May-26 20:22N 39°21' W 009°22'0 0.2
2015-May-26 19:09N 39°21' W 009°22'0 0.3
2015-May-26 18:26N 39°21' W 009°22'0 0.0
2015-May-26 17:30N 39°21' W 009°22'0 0.0
2015-May-26 16:28N 39°21' W 009°22'0 0.0
2015-May-26 15:33N 39°21' W 009°22'0 0.0
2015-May-26 14:32N 39°21' W 009°22'0 0.0
2015-May-26 13:33N 39°21' W 009°22'0 0.0
2015-May-26 11:14N 39°21' W 009°22'0 0.0
2015-May-26 10:22N 39°21' W 009°22'0 0.0
2015-May-26 09:33N 39°21' W 009°22'0 0.0
2015-May-26 04:31N 39°21' W 009°22'0 0.0
2015-May-25 23:23N 39°21' W 009°22'0 0.0
2015-May-25 22:29N 39°21' W 009°22'0 0.0
2015-May-25 20:29N 39°21' W 009°22'0 0.0
2015-May-25 19:25N 39°21' W 009°22'0 0.0
2015-May-25 18:17N 39°21' W 009°22'0 0.0
2015-May-25 17:12N 39°21' W 009°22'0 0.0
2015-May-25 16:31N 39°21' W 009°22'0 0.0
2015-May-25 15:31N 39°21' W 009°22'0 0.0
2015-May-25 14:33N 39°21' W 009°22'0 0.0
2015-May-25 13:27N 39°21' W 009°22'0 0.0
2015-May-25 12:31N 39°21' W 009°22'0 0.0
2015-May-25 11:33N 39°21' W 009°22'0 0.0
2015-May-25 10:33N 39°21' W 009°22'0 0.0
2015-May-25 09:31N 39°21' W 009°22'0 0.0
2015-May-24 10:31N 39°21' W 009°22'0 0.0
2015-May-24 09:32N 39°21' W 009°22'0 0.0
2015-May-24 08:31N 39°21' W 009°22'0 0.0
2015-May-24 07:32N 39°21' W 009°22'0 0.1
2015-May-24 06:30N 39°21' W 009°22'17 8.6
2015-May-24 04:27N 39°05' W 009°29'8 8.5
2015-May-24 03:33N 38°57' W 009°31'8 8.3
2015-May-24 02:33N 38°49' W 009°33'107 5.1
2015-May-23 05:28N 37°03' W 009°20'2 0.6
2015-May-23 01:23N 37°02' W 009°23'3 0.7
2015-May-22 20:30N 37°03' W 009°27'10 0.4
2015-May-21 15:33N 36°53' W 009°23'  
Track history (hours):
 
Tides and Currents Weather Stations Pressure Air Temp Water Temp Dewpoint Dewpoint Depression Visibility Wind Speed Wind Dir Waves Ship Positions

Dario Filipe

Last reported at 2015-May-27 18:29 UTC. Time now 2015-May-27 20:01 UTC.
Position N 39°21' W 009°22'.

Length 24 m.

Type: Fishing. MMSI: 263414640.

Date/timePositionNaut miles runAvg speedWind from/ knotsBaromVisibWave heightAir tempDewpointWater temp
2015-May-27 18:29N 39°21' W 009°22'0 0.0
2015-May-26 20:22N 39°21' W 009°22'0 0.2
2015-May-26 19:09N 39°21' W 009°22'0 0.3
2015-May-26 18:26N 39°21' W 009°22'0 0.0
2015-May-26 17:30N 39°21' W 009°22'0 0.0
2015-May-26 16:28N 39°21' W 009°22'0 0.0
2015-May-26 15:33N 39°21' W 009°22'0 0.0
2015-May-26 14:32N 39°21' W 009°22'0 0.0
2015-May-26 13:33N 39°21' W 009°22'0 0.0
2015-May-26 11:14N 39°21' W 009°22'0 0.0
2015-May-26 10:22N 39°21' W 009°22'0 0.0
2015-May-26 09:33N 39°21' W 009°22'0 0.0
2015-May-26 04:31N 39°21' W 009°22'0 0.0
2015-May-25 23:23N 39°21' W 009°22'0 0.0
2015-May-25 22:29N 39°21' W 009°22'0 0.0
2015-May-25 20:29N 39°21' W 009°22'0 0.0
2015-May-25 19:25N 39°21' W 009°22'0 0.0
2015-May-25 18:17N 39°21' W 009°22'0 0.0
2015-May-25 17:12N 39°21' W 009°22'0 0.0
2015-May-25 16:31N 39°21' W 009°22'0 0.0
2015-May-25 15:31N 39°21' W 009°22'0 0.0
2015-May-25 14:33N 39°21' W 009°22'0 0.0
2015-May-25 13:27N 39°21' W 009°22'0 0.0
2015-May-25 12:31N 39°21' W 009°22'0 0.0
2015-May-25 11:33N 39°21' W 009°22'0 0.0
2015-May-25 10:33N 39°21' W 009°22'0 0.0
2015-May-25 09:31N 39°21' W 009°22'0 0.0
2015-May-24 10:31N 39°21' W 009°22'0 0.0
2015-May-24 09:32N 39°21' W 009°22'0 0.0
2015-May-24 08:31N 39°21' W 009°22'0 0.0
2015-May-24 07:32N 39°21' W 009°22'0 0.1
2015-May-24 06:30N 39°21' W 009°22'17 8.6
2015-May-24 04:27N 39°05' W 009°29'8 8.5
2015-May-24 03:33N 38°57' W 009°31'8 8.3
2015-May-24 02:33N 38°49' W 009°33'107 5.1
2015-May-23 05:28N 37°03' W 009°20'2 0.6
2015-May-23 01:23N 37°02' W 009°23'3 0.7
2015-May-22 20:30N 37°03' W 009°27'10 0.4
2015-May-21 15:33N 36°53' W 009°23'  

Dump ship's entire track history